Airfield :
LOGIN :

Register | Disclaimer

   EN    FR    IT 

 










Legend :    VFR   Marginal VFR   IFR   Intensive IFR   Very Intensive IFR
Visi :
Ceiling :
>= 8 km
>= 3000ft
5 to 8 km
1000 to 3000 ft
1500m to 5 km
500 to 1000 ft
800 to 1500m
200 to 500 ft
< 800m
< 200 ft
Symbols :   Thunderstorms  Fog  Heavy snow  Heavy precipitations  Wind > 20 kt
SIGMETs :     Misc.  Thunderstorms  Icing  Turbulence  Mountain Waves  Volcanic Ashes






- Airport Elevation : 290 ft
- IATA code : LAI


LFRO - Lannion

CURRENT METAR :
  • 141830Z AUTO 17005KT 9000 -RA BKN028/// OVC037/// ///TCU 05/05 Q0996

EXPIRED METARs :
  • 141800Z AUTO 17005KT 9999 BKN026/// OVC032/// ///CB 05/05 Q0996
  • 141730Z AUTO 18006KT 6000 -RA FEW007/// BKN019/// OVC027/// ///CB 05/05 Q0995
  • 141700Z AUTO 22003KT 180V270 6000 RA FEW008/// BKN016/// OVC021/// ///CB 05/05 Q0995
  • 141630Z AUTO 22005KT 180V250 9999 -RADZ BKN011/// BKN022/// BKN027/// ///TCU 06/05 Q0995
  • 141600Z AUTO 21005KT 190V250 9999 -RA FEW014/// BKN029/// BKN039/// ///TCU 06/05 Q0995

Expired Forecast.



MET'MAP, your aeronautical weather chart ! - Copyright ORBIFLY December 2007 - Disclaimer

ORBIFLY MET'MAP TEAM :

Programming & Development : Alexandra Zaïnal
Concept & Development : Baudouin d'Aumeries
Co-Development & Prog : Marc-Olivier Méhu
Technical & hardware support : Manuel Goepfert

Contact : metmap@orbifly.com




SOURCES & CREDITS :

   NOAA